MMGM/GYM METAR and TAF weather

Enter ICAO airport designator
Station Type Date Time Source
MMGM METAR 2020/09/21 23:56 UTC NOAA

MMGM 212356Z 20010KT 10SM FEW020 FEW180 34/27 A2976 RMK 8/460


Station Type Date Time Source
MMGM Decoded METAR 2020/09/21 23:56 UTC NOAA

Guaymas International Airport, Mexico (MMGM) 27-58N 110-56W
Sep 21, 2020 - 07:56 PM EDT / 2020.09.21 2356 UTC
Wind: from the SSW (200 degrees) at 12 MPH (10 KT):0
Visibility: 10 mile(s):0
Sky conditions: mostly clear
Temperature: 93 F (34 C)
Heat index: 113.0 F (45.0 C):1
Dew Point: 80 F (27 C)
Relative Humidity: 67%
Pressure (altimeter): 29.76 in. Hg (1007 hPa)
ob: MMGM 212356Z 20010KT 10SM FEW020 FEW180 34/27 A2976 RMK 8/460
cycle: 0

Station Type Date Time Source
MMGM TAF 2020/09/21 18:08 UTC NOAA

TAF MMGM 211702Z 2118/2218 23010KT P6SM SCT030
TEMPO 2122/2202 BKN030
BECMG 2203/2204 00000KT
FM220900 00000KT P6SM SCT015
FM221600 23010KT P6SM BKN030

Example: see airport list